sensor_id;sensor_type;location;lat;lon;timestamp;pressure;altitude;pressure_sealevel;temperature;humidity
35758;BME280;21879;50.110;18.900;2023-03-01T00:00:32;99900.94;;;0.85;56.19
35758;BME280;21879;50.110;18.900;2023-03-01T00:11:05;99898.91;;;0.85;56.52
35758;BME280;21879;50.110;18.900;2023-03-01T00:21:30;99903.96;;;0.90;56.38
35758;BME280;21879;50.110;18.900;2023-03-01T00:31:54;99898.30;;;1.04;56.11
35758;BME280;21879;50.110;18.900;2023-03-01T00:42:19;99889.43;;;0.77;55.83
35758;BME280;21879;50.110;18.900;2023-03-01T00:52:43;99884.00;;;0.60;56.24
35758;BME280;21879;50.110;18.900;2023-03-01T01:03:07;99875.51;;;0.54;55.90
35758;BME280;21879;50.110;18.900;2023-03-01T01:13:32;99879.14;;;0.38;56.18
35758;BME280;21879;50.110;18.900;2023-03-01T01:23:58;99873.97;;;0.13;56.49
35758;BME280;21879;50.110;18.900;2023-03-01T01:34:23;99863.00;;;0.13;56.88
35758;BME280;21879;50.110;18.900;2023-03-01T01:44:48;99856.21;;;0.10;57.15
35758;BME280;21879;50.110;18.900;2023-03-01T01:55:16;99843.58;;;0.07;57.10
35758;BME280;21879;50.110;18.900;2023-03-01T02:05:47;99840.42;;;0.09;57.08
35758;BME280;21879;50.110;18.900;2023-03-01T02:16:18;99832.45;;;0.07;57.05
35758;BME280;21879;50.110;18.900;2023-03-01T02:26:48;99824.86;;;-0.01;57.18
35758;BME280;21879;50.110;18.900;2023-03-01T02:37:15;99824.58;;;-0.10;57.02
35758;BME280;21879;50.110;18.900;2023-03-01T02:47:45;99825.17;;;-0.12;57.19
35758;BME280;21879;50.110;18.900;2023-03-01T02:58:09;99831.95;;;-0.10;57.02
35758;BME280;21879;50.110;18.900;2023-03-01T03:08:33;99820.17;;;-0.12;56.91
35758;BME280;21879;50.110;18.900;2023-03-01T03:18:58;99823.33;;;-0.28;56.91
35758;BME280;21879;50.110;18.900;2023-03-01T03:29:28;99824.70;;;-0.31;56.98
35758;BME280;21879;50.110;18.900;2023-03-01T03:39:52;99819.89;;;-0.35;57.47
35758;BME280;21879;50.110;18.900;2023-03-01T03:50:18;99816.66;;;-0.32;57.90
35758;BME280;21879;50.110;18.900;2023-03-01T04:00:44;99803.83;;;-0.08;57.63
35758;BME280;21879;50.110;18.900;2023-03-01T04:11:09;99795.69;;;-0.09;57.11
35758;BME280;21879;50.110;18.900;2023-03-01T04:21:50;99807.06;;;-0.35;56.89
35758;BME280;21879;50.110;18.900;2023-03-01T04:32:15;99818.46;;;-0.39;57.30
35758;BME280;21879;50.110;18.900;2023-03-01T04:42:40;99811.74;;;-0.40;57.44
35758;BME280;21879;50.110;18.900;2023-03-01T04:53:04;99808.61;;;-0.51;57.10
35758;BME280;21879;50.110;18.900;2023-03-01T05:03:28;99810.70;;;-0.60;57.24
35758;BME280;21879;50.110;18.900;2023-03-01T05:13:52;99801.15;;;-0.73;57.00
35758;BME280;21879;50.110;18.900;2023-03-01T05:24:18;99788.40;;;-0.88;57.13
35758;BME280;21879;50.110;18.900;2023-03-01T05:34:42;99795.56;;;-0.98;57.10
35758;BME280;21879;50.110;18.900;2023-03-01T05:45:09;99796.70;;;-0.99;57.24
35758;BME280;21879;50.110;18.900;2023-03-01T05:55:34;99797.52;;;-1.03;57.25
35758;BME280;21879;50.110;18.900;2023-03-01T06:05:59;99790.85;;;-0.90;57.38
35758;BME280;21879;50.110;18.900;2023-03-01T06:16:23;99807.43;;;-0.84;57.31
35758;BME280;21879;50.110;18.900;2023-03-01T06:26:47;99813.49;;;-0.75;57.65
35758;BME280;21879;50.110;18.900;2023-03-01T06:37:12;99821.23;;;-0.61;57.94
35758;BME280;21879;50.110;18.900;2023-03-01T06:47:36;99812.79;;;-0.40;58.51
35758;BME280;21879;50.110;18.900;2023-03-01T06:58:01;99812.36;;;-0.12;58.95
35758;BME280;21879;50.110;18.900;2023-03-01T07:08:26;99817.23;;;0.39;59.38
35758;BME280;21879;50.110;18.900;2023-03-01T07:18:51;99808.30;;;0.91;59.36
35758;BME280;21879;50.110;18.900;2023-03-01T07:29:17;99807.95;;;1.44;60.09
35758;BME280;21879;50.110;18.900;2023-03-01T07:39:42;99802.70;;;1.85;60.19
35758;BME280;21879;50.110;18.900;2023-03-01T07:50:09;99783.73;;;2.24;60.08
35758;BME280;21879;50.110;18.900;2023-03-01T08:00:34;99757.36;;;2.59;59.65
35758;BME280;21879;50.110;18.900;2023-03-01T08:10:59;99754.70;;;2.98;59.42
35758;BME280;21879;50.110;18.900;2023-03-01T08:21:24;99754.80;;;3.24;58.63
35758;BME280;21879;50.110;18.900;2023-03-01T08:31:49;99751.10;;;3.46;58.06
35758;BME280;21879;50.110;18.900;2023-03-01T08:42:13;99749.41;;;3.66;57.67
35758;BME280;21879;50.110;18.900;2023-03-01T08:52:38;99742.80;;;3.73;56.69
35758;BME280;21879;50.110;18.900;2023-03-01T09:03:03;99731.75;;;3.57;55.75
35758;BME280;21879;50.110;18.900;2023-03-01T09:13:29;99725.09;;;3.69;56.04
35758;BME280;21879;50.110;18.900;2023-03-01T09:23:56;99725.48;;;3.80;55.67
35758;BME280;21879;50.110;18.900;2023-03-01T09:34:21;99720.66;;;3.90;53.55
35758;BME280;21879;50.110;18.900;2023-03-01T09:44:49;99721.25;;;3.87;52.19
35758;BME280;21879;50.110;18.900;2023-03-01T09:55:20;99724.02;;;3.88;51.70
35758;BME280;21879;50.110;18.900;2023-03-01T10:06:01;99719.55;;;4.09;52.30
35758;BME280;21879;50.110;18.900;2023-03-01T10:16:32;99714.42;;;4.10;52.14
35758;BME280;21879;50.110;18.900;2023-03-01T10:27:00;99701.23;;;4.28;52.61
35758;BME280;21879;50.110;18.900;2023-03-01T10:37:27;99684.14;;;4.49;52.56
35758;BME280;21879;50.110;18.900;2023-03-01T10:48:04;99681.88;;;4.60;52.51
35758;BME280;21879;50.110;18.900;2023-03-01T10:58:30;99678.65;;;4.73;52.46
35758;BME280;21879;50.110;18.900;2023-03-01T11:08:55;99667.09;;;4.84;52.21
35758;BME280;21879;50.110;18.900;2023-03-01T11:19:22;99654.59;;;4.93;51.54
35758;BME280;21879;50.110;18.900;2023-03-01T11:29:50;99633.31;;;5.02;51.44
35758;BME280;21879;50.110;18.900;2023-03-01T11:40:20;99629.48;;;5.20;51.71
35758;BME280;21879;50.110;18.900;2023-03-01T11:50:47;99617.48;;;5.36;50.82
35758;BME280;21879;50.110;18.900;2023-03-01T12:01:30;99611.95;;;5.35;50.07
35758;BME280;21879;50.110;18.900;2023-03-01T12:12:06;99608.14;;;5.41;49.89
35758;BME280;21879;50.110;18.900;2023-03-01T12:22:46;99594.41;;;5.51;49.61
35758;BME280;21879;50.110;18.900;2023-03-01T12:33:24;99581.27;;;5.50;48.59
35758;BME280;21879;50.110;18.900;2023-03-01T12:44:03;99570.36;;;5.48;47.76
35758;BME280;21879;50.110;18.900;2023-03-01T12:54:31;99552.86;;;5.59;48.29
35758;BME280;21879;50.110;18.900;2023-03-01T13:05:19;99542.23;;;5.62;47.85
35758;BME280;21879;50.110;18.900;2023-03-01T13:15:48;99539.91;;;5.58;46.48
35758;BME280;21879;50.110;18.900;2023-03-01T13:26:16;99540.26;;;5.59;46.70
35758;BME280;21879;50.110;18.900;2023-03-01T13:36:48;99524.95;;;5.75;46.59
35758;BME280;21879;50.110;18.900;2023-03-01T13:47:17;99512.20;;;5.84;46.37
35758;BME280;21879;50.110;18.900;2023-03-01T13:57:45;99511.59;;;5.94;45.31
35758;BME280;21879;50.110;18.900;2023-03-01T14:08:23;99510.27;;;5.97;44.72
35758;BME280;21879;50.110;18.900;2023-03-01T14:18:54;99502.94;;;6.01;44.56
35758;BME280;21879;50.110;18.900;2023-03-01T14:29:33;99487.83;;;5.96;44.66
35758;BME280;21879;50.110;18.900;2023-03-01T14:39:59;99473.31;;;6.04;44.66
35758;BME280;21879;50.110;18.900;2023-03-01T14:50:27;99470.34;;;6.11;44.80
35758;BME280;21879;50.110;18.900;2023-03-01T15:00:54;99474.35;;;6.13;44.69
35758;BME280;21879;50.110;18.900;2023-03-01T15:11:21;99472.47;;;6.13;44.32
35758;BME280;21879;50.110;18.900;2023-03-01T15:21:48;99467.58;;;6.19;44.44
35758;BME280;21879;50.110;18.900;2023-03-01T15:32:27;99469.46;;;6.19;43.99
35758;BME280;21879;50.110;18.900;2023-03-01T15:42:51;99465.21;;;6.14;43.34
35758;BME280;21879;50.110;18.900;2023-03-01T15:53:16;99455.13;;;6.18;43.69
35758;BME280;21879;50.110;18.900;2023-03-01T16:03:42;99462.13;;;6.14;43.60
35758;BME280;21879;50.110;18.900;2023-03-01T16:14:07;99467.73;;;6.27;44.82
35758;BME280;21879;50.110;18.900;2023-03-01T16:24:32;99462.92;;;6.55;45.31
35758;BME280;21879;50.110;18.900;2023-03-01T16:34:59;99462.21;;;6.54;44.86
35758;BME280;21879;50.110;18.900;2023-03-01T16:45:24;99470.02;;;6.12;43.63
35758;BME280;21879;50.110;18.900;2023-03-01T16:55:54;99485.13;;;5.92;43.99
35758;BME280;21879;50.110;18.900;2023-03-01T17:06:21;99506.02;;;5.62;45.22
35758;BME280;21879;50.110;18.900;2023-03-01T17:16:48;99515.23;;;5.73;55.37
35758;BME280;21879;50.110;18.900;2023-03-01T17:27:13;99511.05;;;6.01;57.36
35758;BME280;21879;50.110;18.900;2023-03-01T17:37:38;99515.11;;;6.13;56.12
35758;BME280;21879;50.110;18.900;2023-03-01T17:48:16;99511.63;;;6.20;56.68
35758;BME280;21879;50.110;18.900;2023-03-01T17:58:41;99515.72;;;6.26;57.64
35758;BME280;21879;50.110;18.900;2023-03-01T18:09:06;99512.88;;;6.30;57.88
35758;BME280;21879;50.110;18.900;2023-03-01T18:19:32;99508.33;;;6.27;56.20
35758;BME280;21879;50.110;18.900;2023-03-01T18:29:57;99498.05;;;6.23;55.67
35758;BME280;21879;50.110;18.900;2023-03-01T18:40:22;99496.28;;;6.05;54.46
35758;BME280;21879;50.110;18.900;2023-03-01T18:50:47;99497.60;;;5.49;52.00
35758;BME280;21879;50.110;18.900;2023-03-01T19:01:14;99495.95;;;5.23;53.11
35758;BME280;21879;50.110;18.900;2023-03-01T19:11:39;99497.70;;;4.77;50.83
35758;BME280;21879;50.110;18.900;2023-03-01T19:22:03;99509.71;;;4.26;50.95
35758;BME280;21879;50.110;18.900;2023-03-01T19:32:30;99511.69;;;3.87;51.54
35758;BME280;21879;50.110;18.900;2023-03-01T19:42:55;99510.81;;;3.58;51.78
35758;BME280;21879;50.110;18.900;2023-03-01T19:53:20;99508.87;;;3.35;51.77
35758;BME280;21879;50.110;18.900;2023-03-01T20:03:45;99495.79;;;3.13;52.17
35758;BME280;21879;50.110;18.900;2023-03-01T20:14:12;99501.66;;;2.98;52.64
35758;BME280;21879;50.110;18.900;2023-03-01T20:24:37;99504.67;;;2.71;52.34
35758;BME280;21879;50.110;18.900;2023-03-01T20:35:02;99503.42;;;2.55;52.09
35758;BME280;21879;50.110;18.900;2023-03-01T20:45:26;99511.78;;;2.48;52.98
35758;BME280;21879;50.110;18.900;2023-03-01T20:55:51;99512.92;;;2.37;53.60
35758;BME280;21879;50.110;18.900;2023-03-01T21:06:15;99512.23;;;2.38;53.96
35758;BME280;21879;50.110;18.900;2023-03-01T21:16:41;99516.88;;;2.28;53.20
35758;BME280;21879;50.110;18.900;2023-03-01T21:27:08;99512.35;;;2.21;52.85
35758;BME280;21879;50.110;18.900;2023-03-01T21:37:32;99503.55;;;2.01;52.88
35758;BME280;21879;50.110;18.900;2023-03-01T21:47:56;99503.61;;;2.03;53.10
35758;BME280;21879;50.110;18.900;2023-03-01T21:58:21;99503.46;;;1.86;52.99
35758;BME280;21879;50.110;18.900;2023-03-01T22:08:46;99495.80;;;1.69;53.67
35758;BME280;21879;50.110;18.900;2023-03-01T22:19:12;99491.30;;;1.41;53.38
35758;BME280;21879;50.110;18.900;2023-03-01T22:29:36;99499.79;;;1.39;53.76
35758;BME280;21879;50.110;18.900;2023-03-01T22:40:01;99504.10;;;1.40;54.24
35758;BME280;21879;50.110;18.900;2023-03-01T22:50:26;99499.70;;;1.28;54.29
35758;BME280;21879;50.110;18.900;2023-03-01T23:00:50;99493.63;;;1.22;54.60
35758;BME280;21879;50.110;18.900;2023-03-01T23:11:16;99497.80;;;1.07;54.55
35758;BME280;21879;50.110;18.900;2023-03-01T23:21:40;99494.99;;;0.89;54.68
35758;BME280;21879;50.110;18.900;2023-03-01T23:32:09;99495.10;;;0.74;54.94
35758;BME280;21879;50.110;18.900;2023-03-01T23:42:34;99498.53;;;0.67;55.45
35758;BME280;21879;50.110;18.900;2023-03-01T23:52:58;99494.28;;;0.63;55.41
